createdAt,value
2023-03-12T00:04:05.604Z,89
2023-03-12T00:24:05.579Z,89.3
2023-03-12T01:04:05.774Z,90.4
2023-03-12T01:24:05.732Z,90.8
2023-03-12T02:04:05.839Z,91.5
2023-03-12T02:44:05.844Z,91.5
2023-03-12T03:04:06.243Z,91.4
2023-03-12T03:24:05.955Z,91.1
2023-03-12T03:44:05.974Z,90.8
2023-03-12T04:04:06.124Z,90.5
2023-03-12T04:24:06.141Z,90.1
2023-03-12T04:44:06.478Z,90
2023-03-12T05:04:06.334Z,90.1
2023-03-12T05:24:06.312Z,89
2023-03-12T05:44:06.268Z,88.4
2023-03-12T06:04:06.437Z,87.4
2023-03-12T06:24:06.417Z,86.5
2023-03-12T06:44:06.770Z,85.6
2023-03-12T07:04:06.607Z,85.2
2023-03-12T07:24:06.730Z,84.1
2023-03-12T07:44:06.776Z,81.9
2023-03-12T08:04:06.922Z,81.2
2023-03-12T08:24:06.775Z,80.1
2023-03-12T08:44:06.947Z,77.6
2023-03-12T09:04:06.958Z,75.5
2023-03-12T09:24:06.892Z,73.3
2023-03-12T10:04:07.116Z,69.1
2023-03-12T10:24:07.276Z,65.1
2023-03-12T10:44:07.017Z,63.2
2023-03-12T11:04:07.159Z,63.6
2023-03-12T11:24:07.416Z,64.9
2023-03-12T11:44:07.400Z,65.1
2023-03-12T12:04:07.422Z,68.7
2023-03-12T12:24:07.465Z,72.4
2023-03-12T12:44:07.638Z,86.6
2023-03-12T13:04:07.573Z,91.9
2023-03-12T13:24:07.548Z,94.4
2023-03-12T13:44:07.606Z,96.1
2023-03-12T14:04:07.692Z,97.1
2023-03-12T14:24:07.718Z,97.5
2023-03-12T14:44:07.777Z,97.9
2023-03-12T15:04:07.828Z,98.2
2023-03-12T15:24:07.986Z,98.6
2023-03-12T15:44:07.873Z,98.8
2023-03-12T16:04:08.162Z,99
2023-03-12T16:24:07.918Z,99.1
2023-03-12T16:44:08.041Z,99.2
2023-03-12T17:04:08.751Z,99.4
2023-03-12T17:24:08.184Z,99.4
2023-03-12T17:44:08.126Z,99.6
2023-03-12T18:04:08.154Z,99.7
2023-03-12T18:24:13.952Z,99.7
2023-03-12T18:44:08.441Z,99.8
2023-03-12T19:04:08.320Z,99.9
2023-03-12T19:24:08.416Z,100
2023-03-12T19:44:08.363Z,100
2023-03-12T20:04:08.408Z,100
2023-03-12T20:24:08.450Z,100
2023-03-12T20:44:08.644Z,100
2023-03-12T21:04:09.798Z,100
2023-03-12T21:24:08.511Z,100
2023-03-12T21:44:08.636Z,100
2023-03-12T22:04:08.824Z,100
2023-03-12T22:24:08.753Z,100
2023-03-12T22:44:08.836Z,100
2023-03-12T23:04:08.765Z,100
2023-03-12T23:24:08.918Z,100
2023-03-12T23:44:08.913Z,100
